Terminal Aerodrome Forecast
Issued by NWS

Home | Current Version | Previous Version | Text Only | Print | Product List | Glossary On
Versions: 1 2 3 4 5 6 7 8 9 10 11 12 13 14 15 16 17 18 19 20 21 22 23
000
FTUS43 KDLH 010900 AAB
TAFHYR
TAF AMD
KHYR 010920Z 0109/0206 20008KT P6SM -SN SCT021 BKN050
      TEMPO 0109/0113 1 1/2SM -SN BKN025
     FM011300 21006KT P6SM SCT050
     FM011800 26010KT P6SM BKN035
     FM020300 29008KT P6SM SKC=

USA.gov is the U.S. government's official web portal to all federal, state and local government web resources and services.